Time;durP1;ratioP1;P1;durP2;ratioP2;P2;SDS_P1;SDS_P2;PMS_P1;PMS_P2;Temp;Humidity;BMP_temperature;BMP_pressure;BME280_temperature;BME280_humidity;BME280_pressure;Samples;Min_cycle;Max_cycle;Signal;HPM_P1;HPM_P2
2024/01/06 00:10:57;;;;;;;165.40;109.57;;;;;;;20.90;61.59;99123.56;31248131;28;20236;-34
2024/01/06 00:26:02;;;;;;;179.27;116.03;;;;;;;20.88;61.78;99133.63;31252928;28;20227;-34
2024/01/06 00:41:09;;;;;;;171.63;110.13;;;;;;;20.85;61.63;99148.53;31231823;28;20255;-34
2024/01/06 00:56:13;;;;;;;156.93;102.97;;;;;;;20.81;61.63;99148.47;31231014;28;20239;-36
2024/01/06 01:11:18;;;;;;;140.73;93.63;;;;;;;20.83;61.75;99157.41;31213326;28;20263;-35
2024/01/06 01:26:24;;;;;;;126.15;82.40;;;;;;;20.79;62.03;99167.00;31242211;28;20233;-37
2024/01/06 01:41:29;;;;;;;113.93;77.65;;;;;;;20.74;61.96;99187.13;31247788;28;20224;-37
2024/01/06 01:56:37;;;;;;;101.28;68.28;;;;;;;20.74;61.93;99198.44;31286858;28;20723;-38
2024/01/06 02:11:46;;;;;;;86.82;60.30;;;;;;;20.83;61.34;99201.81;31251483;28;20311;-40
2024/01/06 02:26:53;;;;;;;80.80;54.15;;;;;;;20.95;60.89;99210.91;31253526;28;20643;-39
2024/01/06 02:42:00;;;;;;;70.43;48.25;;;;;;;20.97;60.89;99236.00;31242510;28;20220;-37
2024/01/06 02:57:04;;;;;;;90.28;61.83;;;;;;;21.57;60.29;99253.13;31249505;28;20226;-39
2024/01/06 03:12:11;;;;;;;192.23;134.10;;;;;;;21.98;60.08;99260.59;31220323;28;20354;-39
2024/01/06 03:27:17;;;;;;;212.75;146.85;;;;;;;22.21;59.93;99279.50;31245703;28;20231;-39
2024/01/06 03:42:22;;;;;;;429.65;322.73;;;;;;;22.33;61.17;99291.41;31225545;28;20270;-38
2024/01/06 03:57:28;;;;;;;294.33;207.15;;;;;;;21.84;59.89;99314.22;31234053;28;20405;-38
2024/01/06 04:12:35;;;;;;;298.65;214.40;;;;;;;21.80;61.34;99333.19;31234868;28;20235;-36
2024/01/06 04:27:42;;;;;;;262.77;189.55;;;;;;;21.80;61.11;99336.00;31215693;28;20267;-38
2024/01/06 04:42:48;;;;;;;210.48;145.88;;;;;;;21.80;60.77;99353.00;31220850;28;20218;-38
2024/01/06 04:57:55;;;;;;;178.73;123.60;;;;;;;21.75;60.79;99356.97;31213627;28;20216;-38
2024/01/06 05:13:00;;;;;;;153.85;107.35;;;;;;;21.74;60.72;99371.50;31210639;28;20272;-38
2024/01/06 05:28:05;;;;;;;133.95;92.63;;;;;;;21.74;60.33;99395.00;31260503;28;20623;-37
2024/01/06 05:43:10;;;;;;;122.15;85.07;;;;;;;21.71;60.00;99409.09;31236065;28;20221;-35
2024/01/06 05:58:15;;;;;;;105.95;74.60;;;;;;;21.71;59.28;99412.72;31204903;28;20703;-38
2024/01/06 06:13:19;;;;;;;91.75;65.50;;;;;;;21.73;59.51;99435.00;31243405;28;20261;-38
2024/01/06 06:28:24;;;;;;;85.95;59.95;;;;;;;21.65;58.61;99453.91;31211416;28;20224;-36
2024/01/06 06:43:34;;;;;;;78.43;55.03;;;;;;;21.69;58.45;99482.25;31273554;28;20215;-35
2024/01/06 06:58:40;;;;;;;70.10;49.53;;;;;;;21.64;58.80;99508.09;31218473;28;20622;-35
2024/01/06 07:13:44;;;;;;;64.05;46.42;;;;;;;21.68;58.98;99540.91;31234916;28;20234;-34
2024/01/06 07:28:50;;;;;;;60.70;41.75;;;;;;;21.61;58.40;99565.47;31225543;28;20224;-34
2024/01/06 07:43:54;;;;;;;52.90;36.92;;;;;;;21.58;58.85;99583.19;31203066;28;20219;-34
2024/01/06 07:58:58;;;;;;;53.03;36.22;;;;;;;21.53;58.42;99620.31;31189000;28;20220;-35
2024/01/06 08:14:03;;;;;;;45.47;33.20;;;;;;;21.51;58.33;99642.50;31183482;28;20232;-36
2024/01/06 08:29:07;;;;;;;42.08;31.90;;;;;;;21.48;58.44;99669.53;31183116;28;20212;-38
2024/01/06 08:44:12;;;;;;;40.80;29.15;;;;;;;21.56;58.57;99693.16;31173550;28;20232;-35
2024/01/06 08:59:16;;;;;;;37.88;27.17;;;;;;;21.71;58.14;99726.25;31186108;28;20228;-36
2024/01/06 09:14:22;;;;;;;34.00;24.90;;;;;;;21.73;58.02;99736.03;31174979;28;20236;-36
2024/01/06 09:29:25;;;;;;;30.80;22.38;;;;;;;21.76;57.95;99765.63;31184402;28;20570;-37
2024/01/06 09:44:28;;;;;;;31.75;19.08;;;;;;;22.08;57.25;99778.47;31182703;28;20223;-36
2024/01/06 09:59:34;;;;;;;30.13;19.92;;;;;;;21.95;56.49;99799.63;31203436;28;20562;-41
2024/01/06 10:14:38;;;;;;;34.95;19.63;;;;;;;21.45;56.28;99819.50;31211683;28;20278;-44
2024/01/06 10:29:42;;;;;;;33.75;22.65;;;;;;;21.75;57.74;99826.31;31214346;28;20229;-40
2024/01/06 10:44:46;;;;;;;28.90;17.58;;;;;;;21.49;55.67;99835.41;31189522;28;20775;-39
2024/01/06 10:59:51;;;;;;;26.90;15.48;;;;;;;21.70;55.98;99837.91;31188254;28;20308;-39
2024/01/06 11:14:54;;;;;;;26.73;14.70;;;;;;;21.58;57.27;99849.34;31201727;28;20235;-38
2024/01/06 11:29:58;;;;;;;28.95;16.67;;;;;;;21.63;55.71;99834.91;31194432;28;20233;-37
2024/01/06 11:45:05;;;;;;;21.70;15.10;;;;;;;21.73;55.78;99848.50;31206515;28;20225;-35
2024/01/06 12:00:09;;;;;;;24.02;16.55;;;;;;;21.63;56.53;99858.41;31200372;28;20684;-35
2024/01/06 12:15:13;;;;;;;28.80;17.48;;;;;;;21.43;55.62;99867.16;31189634;28;20235;-42
2024/01/06 12:30:18;;;;;;;22.85;14.02;;;;;;;21.53;56.33;99863.81;31203916;28;20316;-40
2024/01/06 12:45:22;;;;;;;21.88;14.00;;;;;;;21.31;54.34;99868.91;31191677;28;20215;-42
2024/01/06 13:00:25;;;;;;;19.70;12.40;;;;;;;21.45;59.08;99887.44;31202989;28;20282;-42
2024/01/06 13:15:28;;;;;;;14.93;9.63;;;;;;;21.44;58.48;99908.44;31197017;28;20235;-42
2024/01/06 13:30:32;;;;;;;11.93;8.38;;;;;;;21.44;56.96;99911.28;31206807;28;20232;-42
2024/01/06 13:45:35;;;;;;;11.30;6.93;;;;;;;21.46;56.10;99934.38;31192056;28;20312;-43
2024/01/06 14:00:38;;;;;;;9.50;6.30;;;;;;;21.34;56.41;99953.09;31213328;28;20224;-44
2024/01/06 14:15:41;;;;;;;12.65;5.82;;;;;;;21.46;54.93;99968.38;31220712;28;20654;-37
2024/01/06 14:30:44;;;;;;;19.85;7.70;;;;;;;21.62;55.83;99986.19;31214723;28;20325;-37
2024/01/06 14:45:47;;;;;;;10.77;6.40;;;;;;;21.69;56.27;99998.50;31211058;28;20230;-38
2024/01/06 15:00:50;;;;;;;11.75;6.78;;;;;;;21.10;53.69;100032.44;31227956;28;20312;-36
2024/01/06 15:15:53;;;;;;;11.73;6.68;;;;;;;20.97;52.67;100045.81;31178642;28;20228;-44
2024/01/06 15:30:57;;;;;;;8.80;4.93;;;;;;;21.42;53.06;100067.38;31163775;28;20349;-43
2024/01/06 15:46:00;;;;;;;11.45;7.70;;;;;;;21.28;51.47;100079.13;31221730;28;20232;-37
2024/01/06 16:01:05;;;;;;;40.42;27.75;;;;;;;20.87;50.19;100096.44;31226606;28;20524;-38
2024/01/06 16:16:08;;;;;;;22.95;13.98;;;;;;;21.38;52.26;100111.72;31201076;28;20233;-37
2024/01/06 16:31:11;;;;;;;14.23;10.82;;;;;;;21.35;52.91;100124.59;31223036;28;20573;-37
2024/01/06 16:46:15;;;;;;;12.40;9.40;;;;;;;21.62;53.17;100136.28;31210865;28;20350;-37
2024/01/06 17:01:19;;;;;;;14.07;8.43;;;;;;;21.44;50.34;100137.75;31215111;28;20303;-37
2024/01/06 17:16:24;;;;;;;8.95;6.55;;;;;;;21.67;51.80;100147.34;31208590;28;20260;-37
2024/01/06 17:31:27;;;;;;;8.80;5.80;;;;;;;22.19;51.50;100157.72;31257606;28;20189;-37
2024/01/06 17:46:31;;;;;;;10.07;8.20;;;;;;;22.31;51.86;100171.81;31238129;28;20243;-36
2024/01/06 18:01:35;;;;;;;7.32;5.72;;;;;;;22.43;52.06;100181.03;31221686;28;20315;-36
2024/01/06 18:16:39;;;;;;;251.70;165.32;;;;;;;22.54;52.95;100191.84;31210465;28;20228;-36
2024/01/06 18:31:42;;;;;;;151.18;103.72;;;;;;;22.63;53.14;100196.13;31226019;28;20312;-37
2024/01/06 18:46:45;;;;;;;124.82;87.07;;;;;;;22.76;53.88;100222.41;31253500;28;20311;-36
2024/01/06 19:01:48;;;;;;;129.65;89.18;;;;;;;22.54;54.26;100238.03;31229355;28;20384;-37
2024/01/06 19:16:51;;;;;;;220.30;150.50;;;;;;;22.51;54.51;100244.44;31217742;28;20311;-38
2024/01/06 19:31:55;;;;;;;209.02;141.98;;;;;;;22.34;54.08;100256.13;31222083;28;20205;-37
2024/01/06 19:47:00;;;;;;;187.82;127.72;;;;;;;22.35;53.80;100269.09;31218871;28;20228;-38
2024/01/06 20:02:03;;;;;;;279.70;192.00;;;;;;;22.53;53.36;100270.44;31219517;28;20220;-37
2024/01/06 20:17:09;;;;;;;255.45;171.50;;;;;;;22.50;54.22;100282.50;31208601;28;20290;-38
2024/01/06 20:32:12;;;;;;;210.95;143.05;;;;;;;22.51;53.83;100294.66;31222753;28;20688;-38
2024/01/06 20:47:16;;;;;;;173.63;119.50;;;;;;;22.54;53.71;100300.44;31235133;28;20323;-38
2024/01/06 21:02:20;;;;;;;144.95;102.60;;;;;;;22.48;53.54;100307.56;31214116;28;20224;-39
2024/01/06 21:17:23;;;;;;;130.18;88.22;;;;;;;22.46;53.91;100312.75;31218197;28;20236;-38
2024/01/06 21:32:27;;;;;;;112.80;78.25;;;;;;;22.47;53.83;100328.59;31189683;28;20199;-38
2024/01/06 21:47:30;;;;;;;96.82;65.22;;;;;;;22.47;53.85;100334.25;31228986;28;20347;-39
2024/01/06 22:02:33;;;;;;;86.35;60.03;;;;;;;22.43;53.67;100345.53;31229429;28;20220;-38
2024/01/06 22:17:36;;;;;;;76.55;51.67;;;;;;;22.42;53.66;100354.38;31227354;28;20647;-38
2024/01/06 22:32:40;;;;;;;64.47;45.40;;;;;;;22.39;53.68;100355.94;31248322;28;20283;-38
2024/01/06 22:47:44;;;;;;;60.50;43.10;;;;;;;22.33;54.30;100359.41;31226708;28;20235;-38
2024/01/06 23:02:46;;;;;;;54.53;37.88;;;;;;;22.30;54.23;100379.97;31253023;28;20221;-37
2024/01/06 23:17:50;;;;;;;46.10;33.72;;;;;;;22.30;54.03;100383.63;31239465;28;20654;-38
2024/01/06 23:32:53;;;;;;;42.50;30.15;;;;;;;22.26;54.47;100390.34;31245152;28;20217;-38
2024/01/06 23:47:56;;;;;;;36.92;27.40;;;;;;;22.35;54.30;100417.38;31237778;28;20224;-39
